createdAt,value
2023-01-23T00:01:42.365Z,1.70
2023-01-23T00:04:14.400Z,1.60
2023-01-23T00:06:42.719Z,1.70
2023-01-23T00:09:11.793Z,1.70
2023-01-23T00:11:40.084Z,1.60
2023-01-23T00:14:08.243Z,1.70
2023-01-23T00:16:37.806Z,1.60
2023-01-23T00:19:06.051Z,1.60
2023-01-23T00:21:34.283Z,1.60
2023-01-23T00:24:03.407Z,1.70
2023-01-23T00:26:34.073Z,1.70
2023-01-23T00:29:03.391Z,1.70
2023-01-23T00:31:35.211Z,1.60
2023-01-23T00:34:10.046Z,1.60
2023-01-23T00:36:41.263Z,1.60
2023-01-23T00:39:16.480Z,1.60
2023-01-23T00:41:45.717Z,1.70
2023-01-23T00:44:14.053Z,1.70
2023-01-23T00:46:42.566Z,1.60
2023-01-23T00:49:12.296Z,1.60
2023-01-23T00:51:40.553Z,1.60
2023-01-23T00:54:08.780Z,1.70
2023-01-23T00:56:37.099Z,1.70
2023-01-23T00:59:05.359Z,1.80
2023-01-23T01:01:33.696Z,1.80
2023-01-23T01:04:02.221Z,1.80
2023-01-23T01:06:31.985Z,1.90
2023-01-23T01:09:01.137Z,1.70
2023-01-23T01:11:29.739Z,1.80
2023-01-23T01:13:58.573Z,1.80
2023-01-23T01:16:26.894Z,1.70
2023-01-23T01:18:56.168Z,1.80
2023-01-23T01:21:25.260Z,1.70
2023-01-23T01:23:54.881Z,1.60
2023-01-23T01:26:23.146Z,1.60
2023-01-23T01:28:51.538Z,1.70
2023-01-23T01:31:19.860Z,1.70
2023-01-23T01:33:48.195Z,1.80
2023-01-23T01:36:22.375Z,1.70
2023-01-23T01:38:50.593Z,1.70
2023-01-23T01:41:20.426Z,1.70
2023-01-23T01:43:48.681Z,1.70
2023-01-23T01:46:24.052Z,1.70
2023-01-23T01:49:09.225Z,1.80
2023-01-23T01:51:43.816Z,1.80
2023-01-23T01:54:22.558Z,1.70
2023-01-23T01:56:59.900Z,1.80
2023-01-23T01:59:34.458Z,1.70
2023-01-23T02:02:09.560Z,1.70
2023-01-23T02:04:44.988Z,1.60
2023-01-23T02:07:23.408Z,1.60
2023-01-23T02:09:52.866Z,1.60
2023-01-23T02:12:23.126Z,1.70
2023-01-23T02:14:51.487Z,1.60
2023-01-23T02:17:21.325Z,1.60
2023-01-23T02:20:04.880Z,1.50
2023-01-23T02:22:45.580Z,1.70
2023-01-23T02:25:27.220Z,1.60
2023-01-23T02:27:56.769Z,1.60
2023-01-23T02:30:25.615Z,1.70
2023-01-23T02:32:53.859Z,1.60
2023-01-23T02:35:28.037Z,1.50
2023-01-23T02:38:01.379Z,1.60
2023-01-23T02:40:34.024Z,1.60
2023-01-23T02:43:06.787Z,1.70
2023-01-23T02:45:35.522Z,1.60
2023-01-23T02:48:06.025Z,1.70
2023-01-23T02:50:34.327Z,1.70
2023-01-23T02:53:03.032Z,1.80
2023-01-23T02:55:32.997Z,1.70
2023-01-23T02:58:15.861Z,1.70
2023-01-23T03:00:45.999Z,1.70
2023-01-23T03:03:15.891Z,1.70
2023-01-23T03:05:44.202Z,1.70
2023-01-23T03:08:12.385Z,1.60
2023-01-23T03:10:40.722Z,1.60
2023-01-23T03:13:11.953Z,1.60
2023-01-23T03:15:42.088Z,1.60
2023-01-23T03:18:11.670Z,1.50
2023-01-23T03:20:41.483Z,1.40
2023-01-23T03:23:10.242Z,1.50
2023-01-23T03:25:38.613Z,1.30
2023-01-23T03:28:26.952Z,1.50
2023-01-23T03:30:54.324Z,1.50
2023-01-23T03:33:23.941Z,1.50
2023-01-23T03:35:52.303Z,1.40
2023-01-23T03:38:20.488Z,1.50
2023-01-23T03:41:09.286Z,1.40
2023-01-23T03:43:37.452Z,1.40
2023-01-23T03:46:06.083Z,1.40
2023-01-23T03:48:35.676Z,1.40
2023-01-23T03:51:03.875Z,1.40
2023-01-23T03:53:32.078Z,1.50
2023-01-23T03:56:00.866Z,1.40
2023-01-23T03:58:30.384Z,1.40
2023-01-23T04:00:58.709Z,1.40
2023-01-23T04:03:26.943Z,1.40
2023-01-23T04:06:00.850Z,1.40
2023-01-23T04:08:29.571Z,1.40
2023-01-23T04:11:06.616Z,1.50
2023-01-23T04:13:34.991Z,1.40
2023-01-23T04:16:04.811Z,1.40
2023-01-23T04:18:34.037Z,1.40
2023-01-23T04:21:03.830Z,1.30
2023-01-23T04:23:32.108Z,1.40
2023-01-23T04:26:00.539Z,1.30
2023-01-23T04:28:28.721Z,1.20
2023-01-23T04:30:57.642Z,1.20
2023-01-23T04:33:27.013Z,1.20
2023-01-23T04:35:58.930Z,1.20
2023-01-23T04:38:31.198Z,1.30
2023-01-23T04:41:00.223Z,1.30
2023-01-23T04:43:28.522Z,1.30
2023-01-23T04:45:58.110Z,1.20
2023-01-23T04:48:26.993Z,1.20
2023-01-23T04:50:55.525Z,1.30
2023-01-23T04:53:23.838Z,1.40
2023-01-23T04:55:53.441Z,1.30
2023-01-23T04:58:21.793Z,1.40
2023-01-23T05:00:50.184Z,1.40
2023-01-23T05:03:18.861Z,1.40
2023-01-23T05:05:49.744Z,1.50
2023-01-23T05:08:17.977Z,1.40
2023-01-23T05:10:46.137Z,1.30
2023-01-23T05:13:15.697Z,1.40
2023-01-23T05:15:43.912Z,1.50
2023-01-23T05:18:12.184Z,1.30
2023-01-23T05:20:40.356Z,1.30
2023-01-23T05:23:09.943Z,1.50
2023-01-23T05:25:38.141Z,1.40
2023-01-23T05:28:08.040Z,1.50
2023-01-23T05:30:38.514Z,1.50
2023-01-23T05:33:07.007Z,1.50
2023-01-23T05:35:35.282Z,1.90
2023-01-23T05:38:03.517Z,1.70
2023-01-23T05:40:31.911Z,1.50
2023-01-23T05:43:00.132Z,1.50
2023-01-23T05:45:28.343Z,1.50
2023-01-23T05:47:57.874Z,1.50
2023-01-23T05:50:26.012Z,1.50
2023-01-23T05:52:54.275Z,1.50
2023-01-23T05:55:22.469Z,1.40
2023-01-23T05:57:50.704Z,1.50
2023-01-23T06:00:20.867Z,1.40
2023-01-23T06:02:49.510Z,1.50
2023-01-23T06:05:19.197Z,1.50
2023-01-23T06:07:47.366Z,1.60
2023-01-23T06:10:16.315Z,1.60
2023-01-23T06:12:44.581Z,1.60
2023-01-23T06:15:13.336Z,1.60
2023-01-23T06:17:41.658Z,1.60
2023-01-23T06:20:12.491Z,1.60
2023-01-23T06:22:42.037Z,1.60
2023-01-23T06:25:11.422Z,1.50
2023-01-23T06:27:39.768Z,1.50
2023-01-23T06:30:10.213Z,1.40
2023-01-23T06:32:38.452Z,1.50
2023-01-23T06:35:07.813Z,1.60
2023-01-23T06:37:36.045Z,1.50
2023-01-23T06:40:06.741Z,1.60
2023-01-23T06:42:34.935Z,1.50
2023-01-23T06:45:03.080Z,1.50
2023-01-23T06:47:31.242Z,1.50
2023-01-23T06:49:59.557Z,1.40
2023-01-23T06:52:27.706Z,1.40
2023-01-23T06:54:55.989Z,1.60
2023-01-23T06:57:25.586Z,1.50
2023-01-23T06:59:53.914Z,1.60
2023-01-23T07:02:23.003Z,1.50
2023-01-23T07:04:51.293Z,1.50
2023-01-23T07:07:19.829Z,1.50
2023-01-23T07:09:48.019Z,1.50
2023-01-23T07:12:16.267Z,1.50
2023-01-23T07:14:45.866Z,1.50
2023-01-23T07:17:14.025Z,1.50
2023-01-23T07:19:42.152Z,1.50
2023-01-23T07:22:10.537Z,1.50
2023-01-23T07:24:39.965Z,1.60
2023-01-23T07:27:08.154Z,1.50
2023-01-23T07:29:36.435Z,1.40
2023-01-23T07:32:08.933Z,1.50
2023-01-23T07:34:39.106Z,1.50
2023-01-23T07:37:07.378Z,1.40
2023-01-23T07:39:35.567Z,1.40
2023-01-23T07:42:03.763Z,1.30
2023-01-23T07:44:31.932Z,1.50
2023-01-23T07:47:00.095Z,1.40
2023-01-23T07:49:29.713Z,1.40
2023-01-23T07:51:57.939Z,1.30
2023-01-23T07:54:26.279Z,1.40
2023-01-23T07:56:54.468Z,1.50
2023-01-23T07:59:22.947Z,1.40
2023-01-23T08:01:52.492Z,1.50
2023-01-23T08:04:21.162Z,1.50
2023-01-23T08:06:50.940Z,1.60
2023-01-23T08:09:19.179Z,1.50
2023-01-23T08:11:47.391Z,1.60
2023-01-23T08:14:15.530Z,1.70
2023-01-23T08:16:43.806Z,1.70
2023-01-23T08:19:12.014Z,1.80
2023-01-23T08:21:40.264Z,1.80
2023-01-23T08:24:12.053Z,1.70
2023-01-23T08:26:41.078Z,1.80
2023-01-23T08:29:09.264Z,1.70
2023-01-23T08:31:37.694Z,1.80
2023-01-23T08:34:06.435Z,1.80
2023-01-23T08:36:34.627Z,1.70
2023-01-23T08:39:02.990Z,1.70
2023-01-23T08:41:32.668Z,1.60
2023-01-23T08:44:01.695Z,1.80
2023-01-23T08:46:30.284Z,1.70
2023-01-23T08:48:58.421Z,1.80
2023-01-23T08:51:27.217Z,1.70
2023-01-23T08:53:55.638Z,1.70
2023-01-23T08:56:26.094Z,1.60
2023-01-23T08:58:55.883Z,1.80
2023-01-23T09:01:27.637Z,1.90
2023-01-23T09:03:56.066Z,1.90
2023-01-23T09:06:24.398Z,1.90
2023-01-23T09:08:52.833Z,1.90
2023-01-23T09:11:23.184Z,1.90
2023-01-23T09:13:53.880Z,1.90
2023-01-23T09:16:23.754Z,1.90
2023-01-23T09:18:52.057Z,1.90
2023-01-23T09:21:20.246Z,2.00
2023-01-23T09:23:48.529Z,2.10
2023-01-23T09:26:19.594Z,2.10
2023-01-23T09:28:48.088Z,2.20
2023-01-23T09:31:16.437Z,2.10
2023-01-23T09:33:46.005Z,2.30
2023-01-23T09:36:14.144Z,2.00
2023-01-23T09:38:42.357Z,1.90
2023-01-23T09:41:18.143Z,1.90
2023-01-23T09:43:58.375Z,2.10
2023-01-23T09:46:33.862Z,2.30
2023-01-23T09:49:11.678Z,2.10
2023-01-23T09:51:56.563Z,2.10
2023-01-23T09:54:43.200Z,2.20
2023-01-23T09:57:17.391Z,2.20
2023-01-23T10:00:00.288Z,2.20
2023-01-23T10:02:30.093Z,2.30
2023-01-23T10:05:02.789Z,2.30
2023-01-23T10:07:54.222Z,2.10
2023-01-23T10:10:48.456Z,2.20
2023-01-23T10:13:34.717Z,2.10
2023-01-23T10:16:48.478Z,2.20
2023-01-23T10:19:49.073Z,2.30
2023-01-23T10:22:36.184Z,2.20
2023-01-23T10:25:15.785Z,2.30
2023-01-23T10:27:47.675Z,2.30
2023-01-23T10:30:26.634Z,2.40
2023-01-23T10:33:01.772Z,2.20
2023-01-23T10:35:42.213Z,2.20
2023-01-23T10:38:27.697Z,2.20
2023-01-23T10:41:13.324Z,2.20
2023-01-23T10:43:42.104Z,2.20
2023-01-23T10:46:15.151Z,2.20
2023-01-23T10:48:47.591Z,2.20
2023-01-23T10:51:35.558Z,2.20
2023-01-23T10:54:31.165Z,2.30
2023-01-23T10:57:04.615Z,2.30
2023-01-23T10:59:38.184Z,2.20
2023-01-23T11:02:22.626Z,2.20
2023-01-23T11:04:55.153Z,2.20
2023-01-23T11:07:26.331Z,2.30
2023-01-23T11:09:59.577Z,2.20
2023-01-23T11:12:30.310Z,2.40
2023-01-23T11:15:23.763Z,2.30
2023-01-23T11:17:54.133Z,2.30
2023-01-23T11:20:30.049Z,2.30
2023-01-23T11:23:17.742Z,2.30
2023-01-23T11:25:50.994Z,2.30
2023-01-23T11:28:26.963Z,2.20
2023-01-23T11:31:13.786Z,2.30
2023-01-23T11:33:53.038Z,2.30
2023-01-23T11:36:45.173Z,2.30
2023-01-23T11:39:31.220Z,2.40
2023-01-23T11:42:13.517Z,2.40
2023-01-23T11:44:52.570Z,2.30
2023-01-23T11:48:11.611Z,2.50
2023-01-23T11:50:56.078Z,2.60
2023-01-23T11:53:43.344Z,2.50
2023-01-23T11:56:57.151Z,2.40
2023-01-23T12:00:02.361Z,2.40
2023-01-23T12:03:19.701Z,2.40
2023-01-23T12:06:20.235Z,2.40
2023-01-23T12:08:57.756Z,2.50
2023-01-23T12:11:35.826Z,2.40
2023-01-23T12:14:21.651Z,2.60
2023-01-23T12:17:12.305Z,2.50
2023-01-23T12:20:11.429Z,2.70
2023-01-23T12:23:02.996Z,2.60
2023-01-23T12:25:36.835Z,2.40
2023-01-23T12:28:29.124Z,2.50
2023-01-23T12:31:16.461Z,2.60
2023-01-23T12:34:22.128Z,2.60
2023-01-23T12:37:30.521Z,2.70
2023-01-23T12:40:13.704Z,2.60
2023-01-23T12:42:52.788Z,2.60
2023-01-23T12:45:24.816Z,2.60
2023-01-23T12:48:07.098Z,2.60
2023-01-23T12:50:46.132Z,2.60
2023-01-23T12:53:17.430Z,2.50
2023-01-23T12:55:59.964Z,2.60
2023-01-23T12:58:33.490Z,2.70
2023-01-23T13:01:32.884Z,2.60
2023-01-23T13:04:20.074Z,2.60
2023-01-23T13:07:39.478Z,2.50
2023-01-23T13:11:08.111Z,2.70
2023-01-23T13:13:37.030Z,2.70
2023-01-23T13:16:13.448Z,2.70
2023-01-23T13:19:11.538Z,2.70
2023-01-23T13:21:57.829Z,2.60
2023-01-23T13:25:03.877Z,2.50
2023-01-23T13:27:46.162Z,2.50
2023-01-23T13:30:43.702Z,2.60
2023-01-23T13:33:58.816Z,2.70
2023-01-23T13:36:33.726Z,2.70
2023-01-23T13:39:23.872Z,2.60
2023-01-23T13:42:33.367Z,2.40
2023-01-23T13:45:35.666Z,2.60
2023-01-23T14:21:30.430Z,2.20
2023-01-23T14:24:22.346Z,2.20
2023-01-23T14:26:53.884Z,2.40
2023-01-23T14:29:27.670Z,2.30
2023-01-23T14:31:56.062Z,2.30
2023-01-23T14:34:27.158Z,2.20
2023-01-23T14:37:03.951Z,2.10
2023-01-23T14:39:36.333Z,2.20
2023-01-23T14:42:11.657Z,2.20
2023-01-23T14:44:48.423Z,2.20
2023-01-23T14:47:24.261Z,2.20
2023-01-23T14:49:53.734Z,2.20
2023-01-23T14:52:26.616Z,2.20
2023-01-23T14:54:56.359Z,2.00
2023-01-23T14:57:26.843Z,2.30
2023-01-23T14:59:58.712Z,2.20
2023-01-23T15:02:34.037Z,2.10
2023-01-23T15:05:20.671Z,2.20
2023-01-23T15:07:54.873Z,2.00
2023-01-23T15:10:25.880Z,2.10
2023-01-23T15:12:59.520Z,2.00
2023-01-23T15:15:31.045Z,2.10
2023-01-23T15:18:01.679Z,2.00
2023-01-23T15:20:38.539Z,1.90
2023-01-23T15:23:31.226Z,1.90
2023-01-23T15:26:26.313Z,1.90
2023-01-23T15:28:57.225Z,2.00
2023-01-23T15:31:31.819Z,2.00
2023-01-23T15:34:21.331Z,2.00
2023-01-23T15:36:53.174Z,1.90
2023-01-23T15:39:27.531Z,2.00
2023-01-23T15:41:59.992Z,2.00
2023-01-23T15:44:32.429Z,1.80
2023-01-23T15:47:03.849Z,1.90
2023-01-23T15:49:35.040Z,1.80
2023-01-23T15:52:18.904Z,1.90
2023-01-23T15:54:47.485Z,1.80
2023-01-23T15:57:16.168Z,1.90
2023-01-23T15:59:44.432Z,1.90
2023-01-23T16:02:30.259Z,1.90
2023-01-23T16:05:00.952Z,1.80
2023-01-23T16:07:35.003Z,1.90
2023-01-23T16:10:08.718Z,1.90
2023-01-23T16:12:38.761Z,1.80
2023-01-23T16:15:16.508Z,1.90
2023-01-23T16:17:46.348Z,1.90
2023-01-23T16:20:16.794Z,1.80
2023-01-23T16:22:46.243Z,1.80
2023-01-23T16:25:38.031Z,1.90
2023-01-23T16:28:14.353Z,1.80
2023-01-23T16:30:42.900Z,1.80
2023-01-23T16:33:13.960Z,1.80
2023-01-23T16:35:43.142Z,1.90
2023-01-23T16:38:22.083Z,1.80
2023-01-23T16:40:53.146Z,1.90
2023-01-23T16:43:22.802Z,2.10
2023-01-23T16:45:53.701Z,2.00
2023-01-23T16:48:27.489Z,1.80
2023-01-23T16:51:01.969Z,1.90
2023-01-23T16:53:34.305Z,1.90
2023-01-23T16:56:03.832Z,1.80
2023-01-23T16:58:39.962Z,1.70
2023-01-23T17:01:17.057Z,1.90
2023-01-23T17:03:49.868Z,1.90
2023-01-23T17:06:18.300Z,1.70
2023-01-23T17:08:46.507Z,1.70
2023-01-23T17:11:22.214Z,1.80
2023-01-23T17:13:58.124Z,1.90
2023-01-23T17:16:28.203Z,1.80
2023-01-23T17:19:01.927Z,1.80
2023-01-23T17:21:35.678Z,1.90
2023-01-23T17:24:04.092Z,1.90
2023-01-23T17:26:32.374Z,1.80
2023-01-23T17:29:01.000Z,1.80
2023-01-23T17:31:32.538Z,1.80
2023-01-23T17:34:05.188Z,1.80
2023-01-23T17:36:33.862Z,1.80
2023-01-23T17:39:02.194Z,1.80
2023-01-23T17:41:32.262Z,1.80
2023-01-23T17:44:01.297Z,1.60
2023-01-23T17:46:33.930Z,1.70
2023-01-23T17:49:03.937Z,1.80
2023-01-23T17:51:34.015Z,1.70
2023-01-23T17:54:02.221Z,1.80
2023-01-23T17:56:30.417Z,1.80
2023-01-23T17:58:58.674Z,1.70
2023-01-23T18:01:27.421Z,1.70
2023-01-23T18:03:55.825Z,1.60
2023-01-23T18:06:25.349Z,1.60
2023-01-23T18:08:53.581Z,1.70
2023-01-23T18:11:24.518Z,1.70
2023-01-23T18:14:21.206Z,1.70
2023-01-23T18:16:50.254Z,1.70
2023-01-23T18:19:21.681Z,1.70
2023-01-23T18:21:54.200Z,1.70
2023-01-23T18:24:28.399Z,1.70
2023-01-23T18:27:09.779Z,1.60
2023-01-23T18:29:54.186Z,1.60
2023-01-23T18:32:54.405Z,1.60
2023-01-23T18:35:45.508Z,1.50
2023-01-23T18:38:27.002Z,1.70
2023-01-23T18:41:12.850Z,1.60
2023-01-23T18:43:45.604Z,1.60
2023-01-23T18:46:16.315Z,1.50
2023-01-23T18:48:46.956Z,1.50
2023-01-23T18:51:32.783Z,1.40
2023-01-23T18:54:20.175Z,1.40
2023-01-23T18:57:12.660Z,1.40
2023-01-23T18:59:51.103Z,1.40
2023-01-23T19:02:34.120Z,1.40
2023-01-23T19:05:26.024Z,1.40
2023-01-23T19:07:54.647Z,1.40
2023-01-23T19:10:29.165Z,1.40
2023-01-23T19:13:19.008Z,1.50
2023-01-23T19:16:02.153Z,1.50
2023-01-23T19:18:49.130Z,1.40
2023-01-23T19:21:23.570Z,1.40
2023-01-23T19:23:59.339Z,1.50
2023-01-23T19:26:33.049Z,1.50
2023-01-23T19:29:19.133Z,1.60
2023-01-23T19:32:04.280Z,1.60
2023-01-23T19:34:34.665Z,1.50
2023-01-23T19:37:03.363Z,1.50
2023-01-23T19:39:31.832Z,1.50
2023-01-23T19:42:01.594Z,1.50
2023-01-23T19:44:30.683Z,1.40
2023-01-23T19:46:59.116Z,1.50
2023-01-23T19:49:27.448Z,1.40
2023-01-23T19:51:55.613Z,1.40
2023-01-23T19:54:24.461Z,1.40
2023-01-23T19:56:52.734Z,1.30
2023-01-23T19:59:22.327Z,1.40
2023-01-23T20:01:53.512Z,1.30
2023-01-23T20:04:24.377Z,1.20
2023-01-23T20:06:53.188Z,1.30
2023-01-23T20:09:22.236Z,1.30
2023-01-23T20:11:52.315Z,1.30
2023-01-23T20:14:23.529Z,1.30
2023-01-23T20:16:51.812Z,1.40
2023-01-23T20:19:20.167Z,1.40
2023-01-23T20:21:48.791Z,1.40
2023-01-23T20:24:17.441Z,1.30
2023-01-23T20:26:46.893Z,1.40
2023-01-23T20:29:15.150Z,1.50
2023-01-23T20:31:44.678Z,1.40
2023-01-23T20:34:13.221Z,1.40
2023-01-23T20:36:41.510Z,1.40
2023-01-23T20:39:11.727Z,1.40
2023-01-23T20:41:39.981Z,1.30
2023-01-23T20:44:08.529Z,1.30
2023-01-23T20:46:36.753Z,1.30
2023-01-23T20:49:06.364Z,1.20
2023-01-23T20:51:34.527Z,1.20
2023-01-23T20:54:01.741Z,1.20
2023-01-23T20:56:30.797Z,1.20
2023-01-23T20:59:17.014Z,1.20
2023-01-23T21:02:04.183Z,1.20
2023-01-23T21:04:36.378Z,1.20
2023-01-23T21:07:05.393Z,1.20
2023-01-23T21:09:33.639Z,1.30
2023-01-23T21:12:01.873Z,1.40
2023-01-23T21:14:31.216Z,1.30
2023-01-23T21:16:59.425Z,1.30
2023-01-23T21:19:27.950Z,1.20
2023-01-23T21:21:57.548Z,1.20
2023-01-23T21:24:26.677Z,1.30
2023-01-23T21:26:54.899Z,1.20
2023-01-23T21:29:23.089Z,1.10
2023-01-23T21:31:51.540Z,1.10
2023-01-23T21:34:19.877Z,1.30
2023-01-23T21:36:48.073Z,1.30
2023-01-23T21:39:18.697Z,1.30
2023-01-23T21:41:47.021Z,1.30
2023-01-23T21:44:15.438Z,1.20
2023-01-23T21:46:43.719Z,1.30
2023-01-23T21:49:12.072Z,1.20
2023-01-23T21:51:40.406Z,1.10
2023-01-23T21:54:08.624Z,1.10
2023-01-23T21:56:38.242Z,1.10
2023-01-23T21:59:06.616Z,1.10
2023-01-23T22:01:36.071Z,1.20
2023-01-23T22:04:09.052Z,1.20
2023-01-23T22:06:39.208Z,1.20
2023-01-23T22:09:08.679Z,1.20
2023-01-23T22:11:38.330Z,1.10
2023-01-23T22:14:06.564Z,1.20
2023-01-23T22:16:51.073Z,1.20
2023-01-23T22:19:25.326Z,1.20
2023-01-23T22:21:54.553Z,1.20
2023-01-23T22:24:22.830Z,1.10
2023-01-23T22:26:52.627Z,1.10
2023-01-23T22:29:22.706Z,1.10
2023-01-23T22:31:52.141Z,1.10
2023-01-23T22:34:20.488Z,1.20
2023-01-23T22:36:48.726Z,1.20
2023-01-23T22:39:16.932Z,1.10
2023-01-23T22:41:46.388Z,1.10
2023-01-23T22:44:15.956Z,1.10
2023-01-23T22:46:44.141Z,1.10
2023-01-23T22:49:12.676Z,1.00
2023-01-23T22:51:40.930Z,1.00
2023-01-23T22:54:09.114Z,1.10
2023-01-23T22:56:37.391Z,1.10
2023-01-23T22:59:05.630Z,1.10
2023-01-23T23:01:35.446Z,1.10
2023-01-23T23:04:04.916Z,1.10
2023-01-23T23:06:33.229Z,1.10
2023-01-23T23:09:01.513Z,1.10
2023-01-23T23:11:30.161Z,1.00
2023-01-23T23:13:58.845Z,1.10
2023-01-23T23:16:30.851Z,1.20
2023-01-23T23:19:03.906Z,1.10
2023-01-23T23:21:35.569Z,1.10
2023-01-23T23:24:06.213Z,1.00
2023-01-23T23:26:35.257Z,1.00
2023-01-23T23:29:03.888Z,1.00
2023-01-23T23:31:32.615Z,1.00
2023-01-23T23:34:02.333Z,1.00
2023-01-23T23:36:30.512Z,1.00
2023-01-23T23:38:58.877Z,1.10
2023-01-23T23:41:27.284Z,1.10
2023-01-23T23:43:55.426Z,1.00
2023-01-23T23:46:23.623Z,1.10
2023-01-23T23:48:51.949Z,1.10
2023-01-23T23:51:26.465Z,1.00
2023-01-23T23:53:55.642Z,0.90
2023-01-23T23:56:27.231Z,1.00
2023-01-23T23:58:56.678Z,0.90
